Verbena, Alabama
Current Conditions -  °F | °C
As of 5:15 PM on Wednesday 17 Dec 2014 (Local Time) from K1A9 Reporting Station
Clear Clear  
Wind Chill: 46°   Ceiling: Unl
Heat Index: 48°   Visibility: 10mi
Dew Point: 38°   Wind: 5mph
Humidity: 68%   Direction: 340°NNW
Pressure: 30.2"   Gusts: NA
Location:  32.75°N, 86.51°W
Report Text: K1A9 172315Z AUTO 34004KT 10SM CLR 09/03 A3020 RMK AO2 T00900033
Loading
Personal Weather Stations






























Interactive Weather Map New forecast layout! Learn more

10-Day Weather Forecast

Advertisements
Track Severe Weather on mobile